Pagrindinis puslapis
METAR-TAF:

METAR-TAF

Oro uostai :

Satu Marė, Rumunija

platuma: 47-48N, ilguma: 022-53E, Aukštis: 123 m

Dabartinis oras

Ataskaita buvo paskelbta 29 minutes, ne 08:30 UTC
Vėjas 4 kt iš Pietryčių, svyruoja nuo Rytų ir Pietų
Temperatūra 20°C
Drėgmė 60%
Slėgis 1018 hPa
Matomumas 10 km arba daugiau
nėra debesų žemiau 1500 m ir nėra kamuolinių lietaus debesų

METAR: LRSM 180830Z 14004KT 100V180 CAVOK 20/12 Q1018

Laikas: 11:59 (08:59 UTC)

Prognozė

Ataskaita buvo paskelbta 59 minutes, ne 08:00 UTC
Prognozė galioja nuo 18 metu 09 UTC su 18 metu 18 UTC
Vėjas 4 kt nuo kintamojo kryptimis
Matomumas 10 km arba daugiau
nėra debesų žemiau 1500 m ir nėra kamuolinių lietaus debesų

TAF: LRSM 180800Z 1809/1818 VRB04KT CAVOK

Orai ataskaitas ir orų prognozės (METAR, TAF).

turimą stotys yra geltonos ir raudonos taškus žemėlapyje.

Perkelti pele per norėdami pamatyti stoties vardą.

Tada spustelėkite, norėdami matyti oro stebėjimo ir prognozės.

Norėdami pakeisti žemėlapį: spustelėkite ant žalios mygtukų su juodo kryžiaus žemyn,; žalią mygtuką su brūkšneliu, jei norite nutolinti; arba žalių rodyklių gretimoms žemėlapius.


METAR-TAF: